Time;durP1;ratioP1;P1;durP2;ratioP2;P2;SDS_P1;SDS_P2;PMS_P1;PMS_P2;Temp;Humidity;BMP_temperature;BMP_pressure;BME280_temperature;BME280_humidity;BME280_pressure;Samples;Min_cycle;Max_cycle;Signal;HPM_P1;HPM_P2
2021/05/19 00:02:12;;;;;;;8.23;6.90;;;;;;;14.69;77.79;97831.59;1748493;82;21640;-73
2021/05/19 00:04:38;;;;;;;6.60;6.00;;;;;;;14.67;78.00;97826.98;1736681;82;21585;-73
2021/05/19 00:07:05;;;;;;;7.83;7.00;;;;;;;14.56;78.37;97833.00;1683835;85;21615;-73
2021/05/19 00:09:32;;;;;;;6.67;5.92;;;;;;;14.46;78.77;97830.29;1736428;82;21542;-73
2021/05/19 00:11:58;;;;;;;7.10;5.85;;;;;;;14.52;78.80;97825.06;1752344;82;21030;-73
2021/05/19 00:14:24;;;;;;;7.60;6.50;;;;;;;14.62;78.75;97829.33;1750755;82;21074;-73
2021/05/19 00:16:51;;;;;;;7.28;6.47;;;;;;;14.58;78.91;97828.85;1727457;81;21073;-73
2021/05/19 00:19:18;;;;;;;8.18;5.75;;;;;;;14.51;79.16;97822.08;1749683;82;21026;-73
2021/05/19 00:21:45;;;;;;;8.35;7.40;;;;;;;14.57;79.06;97825.86;1730272;82;21041;-74
2021/05/19 00:24:11;;;;;;;10.50;7.05;;;;;;;14.61;78.97;97830.33;1724764;82;21046;-73
2021/05/19 00:26:38;;;;;;;10.32;7.00;;;;;;;14.53;79.17;97828.05;1681257;85;21039;-73
2021/05/19 00:29:08;;;;;;;7.62;6.67;;;;;;;14.43;79.48;97837.61;1750476;82;21059;-73
2021/05/19 00:31:34;;;;;;;8.20;6.75;;;;;;;14.44;79.50;97834.46;1752319;81;21573;-73
2021/05/19 00:34:00;;;;;;;8.78;7.03;;;;;;;14.51;79.33;97830.05;1727432;82;21050;-73
2021/05/19 00:36:26;;;;;;;10.13;8.08;;;;;;;14.49;79.44;97828.58;1732399;82;21034;-73
2021/05/19 00:38:54;;;;;;;10.72;7.78;;;;;;;14.41;79.75;97832.98;1752688;82;21109;-73
2021/05/19 00:41:22;;;;;;;10.32;7.72;;;;;;;14.38;79.86;97827.20;1752524;82;21050;-73
2021/05/19 00:43:49;;;;;;;9.70;6.78;;;;;;;14.48;79.61;97818.46;1738174;82;21624;-73
2021/05/19 00:46:16;;;;;;;10.72;7.12;;;;;;;14.51;79.58;97816.76;1722576;82;21098;-73
2021/05/19 00:48:43;;;;;;;8.20;7.12;;;;;;;14.43;79.80;97811.53;1685153;85;21099;-73
2021/05/19 00:51:11;;;;;;;8.75;6.80;;;;;;;14.45;79.92;97806.87;1722391;83;21054;-73
2021/05/19 00:53:39;;;;;;;8.53;7.05;;;;;;;14.62;79.57;97816.02;1672545;85;21062;-73
2021/05/19 00:56:05;;;;;;;9.55;7.62;;;;;;;14.68;79.44;97811.31;1724979;82;21103;-73
2021/05/19 00:58:32;;;;;;;11.33;7.15;;;;;;;14.68;79.40;97808.65;1746717;82;21062;-73
2021/05/19 01:00:59;;;;;;;8.70;6.47;;;;;;;14.72;79.29;97812.11;1635955;85;21070;-73
2021/05/19 01:03:31;;;;;;;9.80;7.17;;;;;;;14.81;78.77;97811.52;1734265;82;21098;-73
2021/05/19 01:06:01;;;;;;;8.03;6.42;;;;;;;14.76;78.68;97816.56;1739144;82;21019;-73
2021/05/19 01:11:15;;;;;;;9.95;8.05;;;;;;;14.46;79.35;97816.47;1723031;83;21042;-73
2021/05/19 01:13:44;;;;;;;8.33;7.08;;;;;;;14.47;79.47;97820.80;1672743;85;21058;-73
2021/05/19 01:16:11;;;;;;;11.78;7.15;;;;;;;14.61;79.23;97822.34;1725520;82;21554;-73
2021/05/19 01:18:40;;;;;;;10.10;8.43;;;;;;;14.62;79.25;97824.81;1685639;85;21590;-73
2021/05/19 01:21:06;;;;;;;9.58;7.60;;;;;;;14.54;79.37;97828.38;1722812;83;21014;-73
2021/05/19 01:23:33;;;;;;;9.93;7.92;;;;;;;14.46;79.55;97824.45;1682877;85;21566;-73
2021/05/19 01:26:03;;;;;;;8.60;7.67;;;;;;;14.47;79.47;97830.09;1723457;82;21061;-73
2021/05/19 01:28:29;;;;;;;9.05;7.50;;;;;;;14.56;79.33;97823.69;1669145;85;21070;-73
2021/05/19 01:30:56;;;;;;;11.30;8.43;;;;;;;14.58;79.27;97822.20;1724633;82;21014;-73
2021/05/19 01:33:23;;;;;;;10.35;8.23;;;;;;;14.55;79.45;97820.73;1724843;82;21101;-73
2021/05/19 01:35:49;;;;;;;11.70;7.92;;;;;;;14.62;79.34;97822.67;1672208;85;21062;-73
2021/05/19 01:38:17;;;;;;;7.95;6.83;;;;;;;14.68;78.96;97824.61;1722699;83;21077;-73
2021/05/19 01:40:43;;;;;;;11.63;8.53;;;;;;;14.71;78.93;97832.25;1727407;82;21565;-73
2021/05/19 01:43:10;;;;;;;8.58;7.45;;;;;;;14.66;78.98;97823.47;1679786;85;21546;-73
2021/05/19 01:45:54;;;;;;;10.15;8.25;;;;;;;14.65;78.91;97829.80;1721541;83;21079;-73
2021/05/19 01:48:21;;;;;;;10.18;8.35;;;;;;;14.73;78.54;97828.88;1723443;82;21050;-73
2021/05/19 01:50:47;;;;;;;9.85;8.70;;;;;;;14.69;78.57;97832.92;1674859;85;21042;-73
2021/05/19 01:53:15;;;;;;;8.70;7.45;;;;;;;14.59;78.77;97834.47;1734131;82;21070;-73
2021/05/19 01:55:42;;;;;;;8.40;7.40;;;;;;;14.55;78.85;97836.69;1745453;82;21633;-73
2021/05/19 01:58:10;;;;;;;12.70;8.40;;;;;;;14.59;78.65;97836.64;1722462;83;21011;-73
2021/05/19 02:00:36;;;;;;;10.48;8.28;;;;;;;14.61;78.73;97842.30;1680678;85;21103;-73
2021/05/19 02:03:05;;;;;;;9.45;8.23;;;;;;;14.55;78.91;97834.03;1725103;82;21078;-73
2021/05/19 02:05:35;;;;;;;9.53;7.45;;;;;;;14.47;79.05;97828.77;1724973;82;21054;-73
2021/05/19 02:08:06;;;;;;;8.88;7.58;;;;;;;14.45;78.92;97836.13;1685535;85;21090;-74
2021/05/19 02:10:36;;;;;;;13.03;7.95;;;;;;;14.48;78.64;97841.06;1728421;82;21386;-73
2021/05/19 02:13:09;;;;;;;11.05;9.20;;;;;;;14.44;78.75;97846.43;1722558;83;21061;-73
2021/05/19 02:15:38;;;;;;;10.90;8.48;;;;;;;14.38;79.09;97841.82;1742087;82;21577;-73
2021/05/19 02:18:06;;;;;;;9.60;8.23;;;;;;;14.36;79.36;97836.69;1743869;82;21010;-73
2021/05/19 02:20:33;;;;;;;8.93;7.95;;;;;;;14.47;79.29;97841.25;1682303;85;21047;-73
2021/05/19 02:22:59;;;;;;;9.50;8.33;;;;;;;14.61;79.14;97843.63;1722893;82;21022;-73
2021/05/19 02:25:27;;;;;;;12.93;9.03;;;;;;;14.63;79.05;97846.91;1685757;85;22359;-73
2021/05/19 02:27:54;;;;;;;9.25;8.23;;;;;;;14.58;79.15;97850.14;1735595;82;21498;-73
2021/05/19 02:30:24;;;;;;;12.45;9.03;;;;;;;14.64;79.16;97855.22;1738216;82;21050;-73
2021/05/19 02:32:51;;;;;;;10.53;8.83;;;;;;;14.78;78.80;97852.30;1751147;82;21011;-73
2021/05/19 02:35:18;;;;;;;11.80;9.68;;;;;;;14.81;78.78;97854.09;1752105;82;21062;-73
2021/05/19 02:37:46;;;;;;;12.55;9.18;;;;;;;14.79;78.89;97853.95;1748271;82;21594;-73
2021/05/19 02:40:15;;;;;;;12.53;9.40;;;;;;;14.78;78.90;97849.64;1727267;82;21145;-73
2021/05/19 02:42:43;;;;;;;13.22;10.00;;;;;;;14.85;78.61;97851.39;1752055;82;21046;-73
2021/05/19 02:45:11;;;;;;;12.40;9.78;;;;;;;14.86;78.57;97855.71;1745043;82;21549;-73
2021/05/19 02:47:38;;;;;;;13.13;9.80;;;;;;;14.75;78.99;97850.31;1680739;85;21634;-73
2021/05/19 02:50:05;;;;;;;13.13;10.50;;;;;;;14.74;79.20;97851.83;1738674;82;21577;-73
2021/05/19 02:52:32;;;;;;;13.10;10.80;;;;;;;14.87;78.99;97850.72;1752727;82;21035;-73
2021/05/19 02:54:59;;;;;;;14.28;11.12;;;;;;;14.94;78.92;97859.31;1746793;82;21713;-73
2021/05/19 02:57:27;;;;;;;13.68;10.88;;;;;;;14.90;79.02;97855.66;1728415;82;21034;-73
2021/05/19 02:59:53;;;;;;;15.48;10.93;;;;;;;14.85;79.16;97846.58;1750386;82;21006;-73
2021/05/19 03:02:19;;;;;;;15.05;11.50;;;;;;;14.93;79.07;97853.66;1747602;82;21027;-73
2021/05/19 03:04:46;;;;;;;15.03;11.80;;;;;;;14.98;78.88;97857.41;1729071;82;21010;-73
2021/05/19 03:07:14;;;;;;;16.07;12.47;;;;;;;14.93;79.19;97859.79;1747663;82;21624;-73
2021/05/19 03:09:40;;;;;;;15.58;11.50;;;;;;;14.91;79.38;97854.66;1732169;82;21031;-73
2021/05/19 03:12:11;;;;;;;16.12;11.03;;;;;;;14.95;79.37;97854.28;1751865;82;21365;-73
2021/05/19 03:14:41;;;;;;;15.10;11.48;;;;;;;15.08;79.08;97857.96;1744241;82;21566;-73
2021/05/19 03:17:09;;;;;;;14.50;11.18;;;;;;;15.07;79.07;97866.14;1723504;82;21058;-74
2021/05/19 03:19:35;;;;;;;12.80;9.53;;;;;;;15.01;79.23;97868.19;1730631;82;20998;-74
2021/05/19 03:22:01;;;;;;;13.60;10.60;;;;;;;14.98;79.27;97871.23;1752659;82;21026;-74
2021/05/19 03:24:28;;;;;;;14.13;11.68;;;;;;;15.04;79.17;97867.84;1740916;82;21026;-73
2021/05/19 03:26:54;;;;;;;15.72;12.05;;;;;;;15.01;79.24;97872.19;1726828;82;21051;-74
2021/05/19 03:29:21;;;;;;;13.85;10.98;;;;;;;14.93;79.52;97872.28;1730742;82;21620;-73
2021/05/19 03:31:47;;;;;;;12.25;10.65;;;;;;;14.95;79.57;97876.91;1722935;82;21046;-73
2021/05/19 03:34:14;;;;;;;15.32;11.50;;;;;;;15.00;79.41;97874.52;1738508;82;21047;-73
2021/05/19 03:36:41;;;;;;;14.60;11.33;;;;;;;15.02;79.39;97872.00;1727325;81;21042;-73
2021/05/19 03:39:09;;;;;;;14.87;11.00;;;;;;;14.98;79.62;97878.70;1740883;82;21070;-73
2021/05/19 03:41:36;;;;;;;13.45;9.58;;;;;;;14.97;79.77;97873.56;1743038;82;21066;-72
2021/05/19 03:44:04;;;;;;;15.32;12.20;;;;;;;15.03;79.58;97870.18;1751200;82;21078;-73
2021/05/19 03:46:30;;;;;;;17.67;12.33;;;;;;;15.01;79.62;97877.51;1752344;82;21601;-75
2021/05/19 03:48:58;;;;;;;17.00;12.30;;;;;;;14.97;79.83;97878.38;1751616;82;21530;-74
2021/05/19 03:51:25;;;;;;;13.30;10.20;;;;;;;14.98;79.93;97879.22;1748456;82;21561;-74
2021/05/19 03:53:52;;;;;;;14.47;11.20;;;;;;;15.11;79.56;97879.91;1746780;82;21625;-74
2021/05/19 03:56:18;;;;;;;15.32;12.23;;;;;;;15.17;79.36;97877.34;1728402;82;21744;-74
2021/05/19 03:58:45;;;;;;;14.68;11.45;;;;;;;15.16;79.44;97886.33;1726170;82;21517;-73
2021/05/19 04:01:12;;;;;;;13.45;10.25;;;;;;;15.16;79.49;97882.85;1740146;82;21003;-73
2021/05/19 04:03:39;;;;;;;13.28;10.88;;;;;;;15.31;79.19;97894.84;1752760;82;21103;-73
2021/05/19 04:06:05;;;;;;;15.70;11.90;;;;;;;15.35;78.97;97893.46;1747848;82;21077;-73
2021/05/19 04:08:36;;;;;;;19.85;16.82;;;;;;;15.24;79.13;97892.06;1728447;82;21531;-73
2021/05/19 04:11:03;;;;;;;17.82;14.43;;;;;;;15.17;79.35;97887.17;1738941;82;21125;-74
2021/05/19 04:13:29;;;;;;;14.38;12.03;;;;;;;15.25;79.26;97883.08;1735054;82;21050;-73
2021/05/19 04:15:55;;;;;;;16.60;12.25;;;;;;;15.31;79.20;97886.34;1736914;82;21092;-74
2021/05/19 04:18:21;;;;;;;17.15;11.85;;;;;;;15.31;79.24;97888.19;1737458;82;21019;-74
2021/05/19 04:20:49;;;;;;;15.93;12.00;;;;;;;15.33;79.16;97889.66;1722482;83;21070;-73
2021/05/19 04:23:15;;;;;;;12.13;10.82;;;;;;;15.47;78.83;97887.16;1740413;82;21050;-74
2021/05/19 04:25:42;;;;;;;13.70;11.05;;;;;;;15.49;78.72;97882.48;1735511;82;21530;-74
2021/05/19 04:28:08;;;;;;;11.68;9.73;;;;;;;15.39;78.89;97891.55;1751766;82;21070;-74
2021/05/19 04:30:35;;;;;;;11.70;9.80;;;;;;;15.33;79.08;97886.15;1741094;82;21037;-73
2021/05/19 04:33:01;;;;;;;12.13;9.65;;;;;;;15.38;78.90;97886.42;1742463;82;21080;-73
2021/05/19 04:35:28;;;;;;;14.43;11.18;;;;;;;15.44;78.80;97887.02;1740689;82;21107;-73
2021/05/19 04:37:57;;;;;;;14.15;11.78;;;;;;;15.44;78.81;97880.36;1729129;82;21202;-73
2021/05/19 04:40:25;;;;;;;14.90;11.28;;;;;;;15.38;78.96;97883.76;1747139;82;21011;-73
2021/05/19 04:42:52;;;;;;;11.65;10.03;;;;;;;15.40;79.03;97885.74;1746777;82;21046;-74
2021/05/19 04:45:20;;;;;;;11.97;9.80;;;;;;;15.54;78.82;97882.23;1739163;82;21054;-74
2021/05/19 04:47:46;;;;;;;16.62;11.53;;;;;;;15.58;78.76;97885.36;1722861;83;21070;-74
2021/05/19 04:50:16;;;;;;;20.82;16.97;;;;;;;15.55;79.08;97878.56;1746596;82;21046;-74
2021/05/19 04:52:44;;;;;;;18.62;14.15;;;;;;;15.65;79.24;97876.10;1733504;82;21625;-74
2021/05/19 04:55:11;;;;;;;12.90;11.45;;;;;;;15.89;79.02;97880.31;1749082;82;21126;-74
2021/05/19 04:57:38;;;;;;;9.43;8.00;;;;;;;16.16;79.18;97874.77;1734976;82;21031;-74
2021/05/19 05:00:07;;;;;;;12.35;9.53;;;;;;;16.61;78.79;97875.05;1730900;82;21098;-74
2021/05/19 05:02:33;;;;;;;10.48;9.38;;;;;;;17.12;77.81;97880.20;1735298;82;21046;-74
2021/05/19 05:05:00;;;;;;;10.18;9.08;;;;;;;17.88;76.56;97874.47;1725394;82;21041;-74
2021/05/19 05:07:27;;;;;;;11.60;9.55;;;;;;;18.61;75.04;97871.11;1676378;85;21062;-75
2021/05/19 05:09:55;;;;;;;13.60;10.20;;;;;;;19.10;73.47;97874.39;1746413;80;21089;-74
2021/05/19 05:12:21;;;;;;;12.68;10.38;;;;;;;19.28;70.93;97876.93;1742090;82;21601;-74
2021/05/19 05:14:49;;;;;;;17.17;11.93;;;;;;;19.11;68.84;97873.89;1722175;82;21030;-74
2021/05/19 05:17:16;;;;;;;12.30;9.18;;;;;;;18.88;68.90;97874.30;1728480;82;21600;-74
2021/05/19 05:19:44;;;;;;;11.25;9.03;;;;;;;18.70;68.95;97877.09;1742515;82;21062;-75
2021/05/19 05:22:12;;;;;;;10.25;8.75;;;;;;;18.65;68.79;97875.02;1752420;82;21143;-75
2021/05/19 05:24:39;;;;;;;11.83;10.23;;;;;;;18.50;68.66;97879.25;1752867;82;21093;-75
2021/05/19 05:27:05;;;;;;;11.55;9.50;;;;;;;18.33;69.17;97876.66;1752084;82;21015;-74
2021/05/19 05:29:32;;;;;;;12.15;10.03;;;;;;;18.22;69.77;97876.72;1750533;82;21054;-75
2021/05/19 05:32:00;;;;;;;13.83;12.43;;;;;;;18.20;69.93;97879.30;1752782;82;21058;-74
2021/05/19 05:34:27;;;;;;;15.95;13.45;;;;;;;18.28;69.96;97877.78;1752833;82;21066;-74
2021/05/19 05:36:54;;;;;;;15.80;13.38;;;;;;;18.28;69.92;97885.81;1706658;83;20999;-74
2021/05/19 05:39:20;;;;;;;15.23;12.20;;;;;;;18.22;69.78;97881.27;1741390;82;21046;-74
2021/05/19 05:41:46;;;;;;;14.80;12.15;;;;;;;18.11;70.27;97886.19;1752727;82;21027;-75
2021/05/19 05:44:13;;;;;;;14.07;11.70;;;;;;;18.16;69.55;97884.25;1752817;82;21046;-74
2021/05/19 05:46:39;;;;;;;15.75;12.55;;;;;;;18.17;68.93;97885.38;1737415;82;21070;-75
2021/05/19 05:49:07;;;;;;;16.02;12.80;;;;;;;18.04;69.49;97889.34;1723557;82;21061;-75
2021/05/19 05:51:36;;;;;;;15.53;11.48;;;;;;;18.04;69.53;97892.02;1722709;83;21034;-74
2021/05/19 05:54:03;;;;;;;14.68;10.43;;;;;;;18.04;69.40;97894.69;1731516;82;21124;-75
2021/05/19 05:56:30;;;;;;;15.15;11.80;;;;;;;18.13;69.40;97891.33;1747578;82;20982;-74
2021/05/19 05:58:56;;;;;;;19.32;14.28;;;;;;;18.25;69.12;97890.21;1740209;82;21077;-74
2021/05/19 06:01:23;;;;;;;18.10;14.20;;;;;;;18.30;68.69;97894.44;1737400;82;21336;-74
2021/05/19 06:03:50;;;;;;;18.30;14.85;;;;;;;18.32;68.50;97900.42;1752581;82;21586;-75
2021/05/19 06:06:16;;;;;;;17.27;12.93;;;;;;;18.25;67.14;97890.21;1752236;82;21015;-75
2021/05/19 06:08:44;;;;;;;17.05;13.05;;;;;;;18.16;67.34;97898.44;1749862;82;21043;-75
2021/05/19 06:11:10;;;;;;;16.67;13.98;;;;;;;18.21;66.90;97894.32;1727125;82;21015;-74
2021/05/19 06:13:37;;;;;;;17.45;14.03;;;;;;;18.22;66.47;97899.98;1711129;82;21083;-74
2021/05/19 06:16:04;;;;;;;16.55;13.25;;;;;;;18.10;66.12;97902.44;1721418;82;21011;-74
2021/05/19 06:18:31;;;;;;;19.70;13.25;;;;;;;17.99;66.63;97899.82;1725268;82;21039;-74
2021/05/19 06:21:00;;;;;;;21.23;15.05;;;;;;;17.93;66.94;97903.27;1709429;82;21103;-74
2021/05/19 06:23:26;;;;;;;18.87;14.73;;;;;;;18.02;66.68;97907.46;1709295;84;21376;-75
2021/05/19 06:25:54;;;;;;;19.65;14.20;;;;;;;18.07;66.99;97903.67;1733157;82;21027;-74
2021/05/19 06:28:21;;;;;;;17.80;14.78;;;;;;;18.17;66.93;97900.59;1729457;82;21594;-74
2021/05/19 06:30:47;;;;;;;18.12;13.58;;;;;;;18.30;66.57;97904.64;1727412;82;21035;-71
2021/05/19 06:33:14;;;;;;;15.55;12.50;;;;;;;18.47;66.35;97905.59;1738576;82;21103;-75
2021/05/19 06:35:44;;;;;;;14.63;12.78;;;;;;;18.76;65.95;97904.37;1716964;82;21074;-75
2021/05/19 06:38:11;;;;;;;13.83;11.55;;;;;;;18.94;65.07;97905.13;1709186;84;21099;-77
2021/05/19 06:40:38;;;;;;;10.53;8.65;;;;;;;19.05;64.92;97909.54;1709335;84;21071;-75
2021/05/19 06:43:05;;;;;;;12.70;10.45;;;;;;;19.18;63.75;97914.05;1660610;86;21031;-73
2021/05/19 06:45:32;;;;;;;9.50;8.13;;;;;;;19.23;63.41;97922.30;1714508;82;21625;-73
2021/05/19 06:47:59;;;;;;;10.20;8.43;;;;;;;19.28;63.05;97925.17;1709107;83;21051;-73
2021/05/19 06:50:25;;;;;;;7.97;6.78;;;;;;;19.32;63.13;97929.91;1663213;86;21063;-73
2021/05/19 06:52:52;;;;;;;10.10;7.90;;;;;;;19.41;62.92;97925.66;1729230;82;21057;-73
2021/05/19 06:55:19;;;;;;;7.72;6.70;;;;;;;19.51;62.21;97926.57;1719270;82;21106;-73
2021/05/19 06:57:46;;;;;;;6.95;5.55;;;;;;;19.56;62.06;97929.44;1663353;86;21074;-74
2021/05/19 07:00:15;;;;;;;7.60;6.10;;;;;;;19.61;61.58;97929.63;1709313;83;21035;-74
2021/05/19 07:02:42;;;;;;;8.13;5.40;;;;;;;19.69;61.64;97936.09;1657731;86;21070;-74
2021/05/19 07:05:09;;;;;;;6.72;5.20;;;;;;;19.68;61.28;97938.49;1710156;82;21070;-74
2021/05/19 07:07:36;;;;;;;6.17;5.12;;;;;;;19.63;61.26;97939.11;1642493;86;21529;-74
2021/05/19 07:10:03;;;;;;;7.33;5.10;;;;;;;19.50;61.25;97943.16;1725156;82;21081;-74
2021/05/19 07:12:31;;;;;;;7.03;5.20;;;;;;;19.34;61.88;97952.48;1746774;81;21392;-73
2021/05/19 07:15:10;;;;;;;6.85;4.72;;;;;;;19.27;62.15;97954.33;1751340;82;21581;-74
2021/05/19 07:17:30;;;;;;;5.42;4.30;;;;;;;19.12;62.39;97951.37;1750459;82;21046;-73
2021/05/19 07:19:57;;;;;;;5.30;3.90;;;;;;;18.94;62.92;97949.81;1752243;82;21577;-74
2021/05/19 07:22:25;;;;;;;5.28;4.30;;;;;;;18.92;63.21;97949.22;1752344;82;21625;-74
2021/05/19 07:24:53;;;;;;;5.65;3.80;;;;;;;19.10;62.81;97947.25;1750178;82;21396;-73
2021/05/19 07:27:19;;;;;;;6.33;4.15;;;;;;;19.25;63.27;97949.72;1737167;82;21081;-73
2021/05/19 07:29:46;;;;;;;6.75;5.20;;;;;;;19.28;63.76;97951.97;1685801;85;21043;-73
2021/05/19 07:32:12;;;;;;;6.10;4.20;;;;;;;19.28;63.75;97956.83;1722689;83;21062;-73
2021/05/19 07:34:39;;;;;;;7.30;4.28;;;;;;;19.27;62.78;97952.49;1680749;85;21055;-73
2021/05/19 07:37:07;;;;;;;4.67;3.75;;;;;;;19.26;63.00;97948.66;1722539;83;21150;-73
2021/05/19 07:39:35;;;;;;;7.33;6.35;;;;;;;19.36;62.91;97952.27;1724686;82;21046;-73
2021/05/19 07:42:01;;;;;;;7.45;4.60;;;;;;;19.36;63.19;97946.91;1685603;85;21550;-73
2021/05/19 07:44:29;;;;;;;4.55;3.60;;;;;;;19.30;62.86;97961.45;1738100;82;21597;-74
2021/05/19 07:46:57;;;;;;;4.62;3.70;;;;;;;19.23;62.59;97955.79;1739737;82;21042;-73
2021/05/19 07:49:25;;;;;;;6.70;3.45;;;;;;;19.15;63.04;97962.19;1722407;83;21073;-73
2021/05/19 07:51:51;;;;;;;4.17;3.20;;;;;;;19.09;62.75;97961.17;1733383;82;21046;-73
2021/05/19 07:54:25;;;;;;;3.42;2.87;;;;;;;19.05;62.60;97962.59;1750976;82;21159;-73
2021/05/19 07:56:56;;;;;;;3.75;3.10;;;;;;;19.08;62.22;97960.86;1751179;82;21043;-73
2021/05/19 07:59:19;;;;;;;3.85;2.90;;;;;;;19.01;62.38;97962.70;1723558;82;21046;-74
2021/05/19 08:02:31;;;;;;;4.87;3.20;;;;;;;18.95;62.69;97967.54;1748875;82;21030;-73
2021/05/19 08:04:15;;;;;;;3.50;2.80;;;;;;;19.00;62.89;97974.44;1736039;82;21062;-73
2021/05/19 08:06:43;;;;;;;4.85;2.70;;;;;;;19.11;62.46;97976.51;1752372;82;21062;-74
2021/05/19 08:09:10;;;;;;;3.35;2.70;;;;;;;19.19;61.71;97981.36;1750600;82;21090;-74
2021/05/19 08:13:50;;;;;;;2.87;2.58;;;;;;;19.51;61.66;97974.83;1818659;79;23420;-74
2021/05/19 08:16:16;;;;;;;3.62;2.50;;;;;;;19.58;60.54;97975.65;1757982;80;21030;-73
2021/05/19 08:18:43;;;;;;;3.95;2.70;;;;;;;19.57;59.97;97976.67;1760655;81;21562;-73
2021/05/19 08:21:11;;;;;;;4.20;2.60;;;;;;;19.51;60.54;97980.19;1773465;80;21054;-73
2021/05/19 08:23:37;;;;;;;7.28;4.30;;;;;;;19.51;60.45;97977.51;1785137;80;21055;-73
2021/05/19 08:26:06;;;;;;;4.58;2.80;;;;;;;19.53;59.94;97976.27;1717243;83;21562;-73
2021/05/19 08:28:34;;;;;;;4.33;3.10;;;;;;;19.52;60.43;97982.65;1718501;83;21029;-72
2021/05/19 08:31:00;;;;;;;5.50;3.45;;;;;;;19.50;59.93;97982.02;1719821;83;21118;-73
2021/05/19 08:33:26;;;;;;;4.53;2.60;;;;;;;19.51;60.43;97985.55;1720215;83;21046;-74
2021/05/19 08:35:53;;;;;;;4.60;2.90;;;;;;;19.60;60.65;97985.62;1731011;83;21040;-73
2021/05/19 08:38:21;;;;;;;2.95;2.40;;;;;;;19.76;59.83;97985.17;1722173;83;21133;-73
2021/05/19 08:40:48;;;;;;;3.77;2.70;;;;;;;19.94;60.08;97989.08;1703723;83;21089;-74
2021/05/19 08:43:15;;;;;;;3.80;2.67;;;;;;;20.05;59.23;97987.09;1730720;83;21651;-72
2021/05/19 08:45:44;;;;;;;5.70;2.40;;;;;;;20.16;59.31;97987.45;1728390;82;21071;-73
2021/05/19 08:48:11;;;;;;;3.25;2.65;;;;;;;20.26;58.82;97985.95;1736574;82;21043;-73
2021/05/19 08:50:37;;;;;;;4.03;2.20;;;;;;;20.39;58.54;97987.73;1733956;82;21024;-73
2021/05/19 08:53:09;;;;;;;4.47;2.20;;;;;;;20.46;58.03;97989.03;1727817;83;21056;-74
2021/05/19 08:55:37;;;;;;;3.55;2.20;;;;;;;20.52;58.13;97986.02;1687165;84;21110;-74
2021/05/19 08:58:04;;;;;;;3.08;2.55;;;;;;;20.62;57.73;97985.84;1693798;84;21082;-73
2021/05/19 09:00:33;;;;;;;4.30;2.20;;;;;;;20.70;57.03;97986.13;1690659;85;21130;-75
2021/05/19 09:03:13;;;;;;;4.15;2.08;;;;;;;20.77;56.63;97978.86;1688720;84;21074;-73
2021/05/19 09:05:44;;;;;;;3.37;2.10;;;;;;;20.83;56.58;97989.28;1691643;84;21051;-73
2021/05/19 09:08:17;;;;;;;5.22;2.27;;;;;;;20.79;55.62;97989.39;1690740;85;21550;-74
2021/05/19 09:11:00;;;;;;;2.15;1.95;;;;;;;20.68;55.65;97987.36;1685053;84;21681;-74
2021/05/19 09:13:42;;;;;;;2.65;1.80;;;;;;;20.68;55.33;97982.83;1666583;85;22235;-74
2021/05/19 09:16:10;;;;;;;2.00;1.80;;;;;;;20.69;54.41;97991.70;1687717;83;21091;-74
2021/05/19 09:18:52;;;;;;;1.82;1.70;;;;;;;20.66;54.77;97987.58;1732599;82;21577;-75
2021/05/19 09:21:39;;;;;;;2.13;1.63;;;;;;;20.72;54.59;97994.81;1717692;83;21100;-74
2021/05/19 09:24:21;;;;;;;2.00;1.75;;;;;;;20.73;53.60;97992.94;1733771;80;21094;-75
2021/05/19 09:26:58;;;;;;;3.42;1.70;;;;;;;20.71;54.62;97990.47;1720002;83;21066;-74
2021/05/19 09:29:33;;;;;;;2.25;1.98;;;;;;;20.74;53.86;97991.40;1719924;83;21039;-74
2021/05/19 09:32:06;;;;;;;2.67;1.70;;;;;;;20.75;54.36;97990.34;1722771;83;21070;-74
2021/05/19 09:34:39;;;;;;;3.08;1.72;;;;;;;20.81;53.90;97990.50;1736512;82;21054;-75
2021/05/19 09:37:18;;;;;;;2.27;1.60;;;;;;;20.77;52.92;97989.61;1717742;82;21066;-74
2021/05/19 09:40:06;;;;;;;2.47;1.70;;;;;;;20.82;53.76;97989.47;1744058;82;21015;-74
2021/05/19 09:42:49;;;;;;;1.70;1.60;;;;;;;20.92;52.60;97983.94;1747010;82;21335;-74
2021/05/19 09:45:39;;;;;;;4.92;2.02;;;;;;;20.97;52.79;97978.42;1727172;82;21095;-74
2021/05/19 09:48:01;;;;;;;3.58;2.08;;;;;;;20.98;53.27;97982.22;1716530;83;21590;-73
2021/05/19 09:50:45;;;;;;;2.33;1.72;;;;;;;21.05;53.01;97977.63;1725171;82;21207;-73
2021/05/19 09:53:17;;;;;;;;;;;;;;;21.14;52.95;97977.34;1705097;84;21441;-73
2021/05/19 09:55:56;;;;;;;3.52;1.67;;;;;;;21.21;52.31;97980.80;1673297;86;20494;-72
2021/05/19 09:58:39;;;;;;;1.75;1.55;;;;;;;21.13;52.06;97975.72;1657218;86;21929;-72
2021/05/19 10:01:06;;;;;;;2.55;1.65;;;;;;;21.09;52.02;97976.14;1704442;84;21035;-72
2021/05/19 10:03:36;;;;;;;1.85;1.70;;;;;;;21.15;52.39;97980.34;1737792;82;21054;-72
2021/05/19 10:08:33;;;;;;;2.12;1.60;;;;;;;21.30;52.09;97980.82;1674441;86;21087;-73
2021/05/19 10:11:04;;;;;;;2.12;1.67;;;;;;;21.35;51.45;97985.02;1642656;86;21050;-73
2021/05/19 10:13:34;;;;;;;2.45;1.75;;;;;;;21.34;51.34;97988.73;1740597;82;21043;-73
2021/05/19 10:16:05;;;;;;;4.33;1.80;;;;;;;21.39;51.08;97996.96;1745503;82;21070;-73
2021/05/19 10:18:38;;;;;;;4.05;1.70;;;;;;;21.44;50.57;97991.77;1747126;82;21039;-72
2021/05/19 10:21:04;;;;;;;2.08;1.42;;;;;;;21.53;50.78;97996.86;1746515;82;21086;-73
2021/05/19 10:23:39;;;;;;;3.30;1.57;;;;;;;21.60;50.09;97990.39;1747109;82;21054;-73
2021/05/19 10:26:11;;;;;;;2.62;1.60;;;;;;;21.68;49.81;97997.34;1742067;82;21051;-72
2021/05/19 10:28:46;;;;;;;1.70;1.60;;;;;;;21.79;49.60;97997.65;1739014;82;21047;-72
2021/05/19 10:31:40;;;;;;;2.98;1.80;;;;;;;21.83;49.64;98001.53;1738426;82;21538;-72
2021/05/19 10:34:01;;;;;;;3.90;1.60;;;;;;;21.87;50.10;98010.83;1736506;82;21102;-73
2021/05/19 10:36:37;;;;;;;4.05;1.50;;;;;;;21.87;49.55;98004.09;1737344;82;21067;-72
2021/05/19 10:39:18;;;;;;;3.75;2.00;;;;;;;21.86;49.74;98008.64;1737672;82;21610;-72
2021/05/19 10:41:50;;;;;;;2.55;1.70;;;;;;;21.87;49.72;98006.79;1675074;85;21047;-73
2021/05/19 10:44:19;;;;;;;3.85;1.72;;;;;;;21.90;49.65;98011.71;1679866;85;21571;-73
2021/05/19 10:46:59;;;;;;;2.15;1.70;;;;;;;21.93;49.37;98010.74;1681924;84;21055;-73
2021/05/19 10:49:52;;;;;;;1.95;1.60;;;;;;;21.99;49.06;97999.59;1683050;85;20996;-73
2021/05/19 10:52:23;;;;;;;2.65;1.50;;;;;;;22.06;48.73;98000.88;1683657;85;21048;-73
2021/05/19 10:57:54;;;;;;;2.65;1.35;;;;;;;22.19;47.85;98009.32;1656554;86;21042;-73
2021/05/19 11:00:23;;;;;;;3.27;1.70;;;;;;;22.29;48.25;98012.30;1657010;85;21401;-72
2021/05/19 11:03:05;;;;;;;2.35;1.40;;;;;;;22.37;48.02;98008.50;1656297;86;21067;-73
2021/05/19 11:05:34;;;;;;;1.55;1.42;;;;;;;22.42;47.73;98013.48;1743732;82;21058;-73
2021/05/19 11:08:11;;;;;;;2.85;1.42;;;;;;;22.45;47.15;98010.05;1746847;82;21023;-73
2021/05/19 11:10:48;;;;;;;1.45;1.35;;;;;;;22.42;47.25;98012.14;1746972;82;21078;-73
2021/05/19 11:13:20;;;;;;;3.92;2.35;;;;;;;22.34;46.76;98012.95;1746098;82;21125;-73
2021/05/19 11:21:21;;;;;;;4.92;2.52;;;;;;;22.01;50.99;98021.73;1745257;82;21405;-73
2021/05/19 11:24:10;;;;;;;3.12;2.35;;;;;;;21.85;50.27;98025.02;1726034;82;20999;-74
2021/05/19 11:26:43;;;;;;;4.30;2.70;;;;;;;21.70;50.94;98023.52;1737448;82;21562;-73
2021/05/19 11:29:11;;;;;;;5.15;3.12;;;;;;;21.61;51.73;98020.79;1737528;82;21031;-73
2021/05/19 11:31:45;;;;;;;10.10;6.40;;;;;;;21.51;52.35;98028.01;1737358;82;21050;-73
2021/05/19 11:34:13;;;;;;;7.08;5.22;;;;;;;21.35;53.87;98031.25;1737480;82;21550;-74
2021/05/19 11:36:49;;;;;;;9.78;6.20;;;;;;;21.20;55.46;98034.26;1737360;82;21058;-73
2021/05/19 11:39:45;;;;;;;8.53;3.83;;;;;;;21.00;56.63;98030.37;1737254;82;21566;-73
2021/05/19 11:42:25;;;;;;;5.47;3.60;;;;;;;20.81;57.31;98036.17;1737223;82;21265;-73
2021/05/19 11:45:06;;;;;;;4.75;3.60;;;;;;;20.64;57.07;98040.70;1737551;82;21066;-73
2021/05/19 11:47:36;;;;;;;5.40;3.83;;;;;;;20.31;58.02;98041.69;1746599;82;21102;-73
2021/05/19 11:50:11;;;;;;;4.15;3.62;;;;;;;19.97;59.04;98044.98;1747053;82;21054;-73
2021/05/19 11:52:44;;;;;;;6.95;3.58;;;;;;;19.72;59.75;98054.18;1731245;82;21105;-73